createdAt,value
2023-01-19T00:01:27.155Z,16.70
2023-01-19T00:06:29.010Z,16.90
2023-01-19T00:11:30.728Z,16.20
2023-01-19T00:16:32.435Z,16.13
2023-01-19T00:21:34.015Z,17.73
2023-01-19T00:26:35.603Z,16.23
2023-01-19T00:31:37.546Z,16.97
2023-01-19T00:36:39.236Z,17.63
2023-01-19T00:41:59.418Z,20.80
2023-01-19T00:47:03.910Z,18.63
2023-01-19T00:52:05.892Z,18.03
2023-01-19T00:57:07.527Z,18.83
2023-01-19T01:02:09.318Z,17.40
2023-01-19T01:07:11.063Z,16.53
2023-01-19T01:12:12.701Z,13.87
2023-01-19T01:17:14.362Z,13.33
2023-01-19T01:22:16.120Z,13.07
2023-01-19T01:27:17.893Z,12.80
2023-01-19T01:32:19.517Z,13.47
2023-01-19T01:37:21.117Z,12.20
2023-01-19T01:42:27.970Z,11.93
2023-01-19T01:47:37.078Z,11.20
2023-01-19T01:53:11.991Z,12.07
2023-01-19T01:58:16.075Z,11.53
2023-01-19T02:03:17.762Z,11.97
2023-01-19T02:08:50.682Z,11.33
2023-01-19T02:13:53.117Z,10.27
2023-01-19T02:18:54.790Z,10.77
2023-01-19T02:23:58.838Z,12.27
2023-01-19T02:29:03.464Z,11.23
2023-01-19T02:34:07.868Z,11.37
2023-01-19T02:39:11.383Z,10.33
2023-01-19T02:44:14.402Z,9.90
2023-01-19T02:49:15.998Z,9.80
2023-01-19T02:54:34.760Z,10.80
2023-01-19T02:59:50.686Z,9.90
2023-01-19T03:05:11.020Z,10.07
2023-01-19T03:10:26.634Z,9.73
2023-01-19T03:15:45.146Z,9.00
2023-01-19T03:20:50.258Z,8.67
2023-01-19T03:25:55.599Z,10.13
2023-01-19T03:31:10.859Z,10.67
2023-01-19T03:36:19.174Z,9.87
2023-01-19T03:41:23.580Z,10.00
2023-01-19T03:46:27.231Z,9.37
2023-01-19T03:51:29.361Z,9.23
2023-01-19T03:56:31.498Z,9.67
2023-01-19T04:01:33.265Z,9.93
2023-01-19T04:06:35.300Z,8.80
2023-01-19T04:11:36.915Z,9.67
2023-01-19T04:16:38.517Z,8.90
2023-01-19T04:21:40.142Z,10.67
2023-01-19T04:26:41.773Z,10.73
2023-01-19T04:31:43.359Z,8.80
2023-01-19T04:36:46.667Z,9.60
2023-01-19T04:41:48.407Z,9.67
2023-01-19T04:46:51.571Z,9.93
2023-01-19T04:51:54.034Z,10.60
2023-01-19T04:56:55.645Z,10.47
2023-01-19T05:01:57.311Z,10.00
2023-01-19T05:06:58.945Z,8.80
2023-01-19T05:12:00.667Z,9.37
2023-01-19T05:17:03.255Z,10.00
2023-01-19T05:22:05.933Z,9.77
2023-01-19T05:27:07.645Z,8.97
2023-01-19T05:32:09.305Z,9.90
2023-01-19T05:37:11.598Z,10.30
2023-01-19T05:42:13.231Z,11.63
2023-01-19T05:47:15.316Z,10.60
2023-01-19T05:52:16.925Z,10.70
2023-01-19T05:57:19.021Z,10.40
2023-01-19T06:02:20.743Z,9.97
2023-01-19T06:07:24.389Z,10.70
2023-01-19T06:12:26.732Z,10.10
2023-01-19T06:17:28.356Z,10.40
2023-01-19T06:22:30.198Z,10.33
2023-01-19T06:27:31.928Z,10.07
2023-01-19T06:32:33.602Z,11.73
2023-01-19T06:37:36.180Z,10.07
2023-01-19T06:42:37.852Z,10.93
2023-01-19T06:47:39.467Z,12.20
2023-01-19T06:52:42.474Z,11.83
2023-01-19T06:57:44.542Z,13.67
2023-01-19T07:02:46.199Z,12.63
2023-01-19T07:07:52.768Z,11.17
2023-01-19T07:12:57.267Z,13.87
2023-01-19T07:17:59.973Z,13.07
2023-01-19T07:23:03.099Z,16.67
2023-01-19T07:28:05.033Z,13.17
2023-01-19T07:33:06.887Z,13.13
2023-01-19T07:38:08.511Z,12.50
2023-01-19T07:43:10.330Z,15.43
2023-01-19T07:48:12.418Z,17.97
2023-01-19T07:53:14.056Z,16.97
2023-01-19T07:58:15.731Z,16.90
2023-01-19T08:03:17.861Z,14.63
2023-01-19T08:08:19.994Z,13.60
2023-01-19T08:13:22.177Z,13.77
2023-01-19T08:18:23.782Z,14.47
2023-01-19T08:23:25.811Z,13.80
2023-01-19T08:28:27.584Z,13.13
2023-01-19T08:33:29.189Z,14.17
2023-01-19T08:38:30.853Z,24.97
2023-01-19T08:43:34.640Z,23.63
2023-01-19T08:48:39.182Z,18.97
2023-01-19T08:53:42.803Z,16.77
2023-01-19T08:58:47.943Z,16.50
2023-01-19T09:03:55.208Z,16.80
2023-01-19T09:08:57.581Z,20.47
2023-01-19T09:13:59.237Z,54.27
2023-01-19T09:19:00.853Z,73.80
2023-01-19T09:24:02.639Z,51.93
2023-01-19T09:29:04.282Z,14.67
2023-01-19T09:34:06.788Z,26.33
2023-01-19T09:39:09.312Z,15.40
2023-01-19T09:44:18.832Z,11.87
2023-01-19T09:49:28.365Z,12.17
2023-01-19T09:54:39.128Z,11.83
2023-01-19T09:59:43.751Z,11.20
2023-01-19T10:04:57.596Z,11.10
2023-01-19T10:10:19.846Z,11.00
2023-01-19T10:15:48.329Z,11.27
2023-01-19T10:20:54.501Z,10.23
2023-01-19T10:26:00.510Z,11.47
2023-01-19T10:31:05.033Z,10.77
2023-01-19T10:36:17.120Z,11.80
2023-01-19T10:41:28.501Z,11.80
2023-01-19T10:46:44.660Z,11.30
2023-01-19T10:51:48.976Z,10.93
2023-01-19T10:57:11.937Z,10.00
2023-01-19T11:02:16.628Z,12.80
2023-01-19T11:07:19.931Z,11.33
2023-01-19T11:12:23.836Z,10.83
2023-01-19T11:17:26.155Z,10.87
2023-01-19T11:22:33.491Z,10.80
2023-01-19T11:27:37.004Z,10.00
2023-01-19T11:32:38.693Z,10.50
2023-01-19T11:37:42.831Z,11.13
2023-01-19T11:42:44.840Z,10.87
2023-01-19T11:47:50.295Z,9.53
2023-01-19T11:53:05.405Z,10.70
2023-01-19T11:58:07.483Z,11.53
2023-01-19T12:03:32.857Z,10.70
2023-01-19T12:08:39.605Z,10.77
2023-01-19T12:13:44.006Z,12.30
2023-01-19T12:18:51.428Z,12.17
2023-01-19T12:24:33.465Z,10.77
2023-01-19T12:29:36.452Z,10.97
2023-01-19T12:34:48.510Z,11.50
2023-01-19T12:39:50.154Z,12.63
2023-01-19T12:45:17.649Z,11.37
2023-01-19T12:50:23.268Z,11.90
2023-01-19T12:55:31.135Z,13.40
2023-01-19T13:00:42.007Z,10.37
2023-01-19T13:05:43.548Z,7.33
2023-01-19T13:11:16.052Z,11.53
2023-01-19T13:16:25.067Z,12.50
2023-01-19T13:21:28.067Z,11.83
2023-01-19T13:26:33.380Z,10.13
2023-01-19T13:31:40.908Z,10.07
2023-01-19T13:36:46.400Z,11.40
2023-01-19T13:41:51.445Z,10.33
2023-01-19T13:46:56.521Z,11.60
2023-01-19T13:52:13.781Z,9.87
2023-01-19T13:57:32.964Z,9.60
2023-01-19T14:02:34.677Z,9.10
2023-01-19T14:07:36.411Z,10.53
2023-01-19T14:12:48.146Z,7.97
2023-01-19T14:18:21.135Z,9.17
2023-01-19T14:23:41.539Z,9.63
2023-01-19T14:28:44.152Z,9.77
2023-01-19T14:33:47.098Z,8.33
2023-01-19T14:38:51.674Z,8.37
2023-01-19T14:43:56.010Z,8.57
2023-01-19T14:49:03.054Z,9.67
2023-01-19T14:54:04.965Z,9.40
2023-01-19T14:59:10.709Z,7.80
2023-01-19T15:04:12.381Z,7.80
2023-01-19T15:09:16.013Z,7.43
2023-01-19T15:14:20.090Z,8.63
2023-01-19T15:19:21.730Z,10.57
2023-01-19T15:24:23.417Z,10.83
2023-01-19T15:29:26.584Z,8.63
2023-01-19T15:34:28.179Z,10.33
2023-01-19T15:39:29.919Z,10.57
2023-01-19T15:44:31.615Z,9.93
2023-01-19T15:49:33.435Z,8.97
2023-01-19T15:54:35.053Z,9.57
2023-01-19T15:59:36.727Z,8.27
2023-01-19T16:04:38.345Z,9.50
2023-01-19T16:09:40.367Z,9.10
2023-01-19T16:14:41.970Z,9.73
2023-01-19T16:19:43.710Z,8.10
2023-01-19T16:24:45.585Z,8.87
2023-01-19T16:29:49.471Z,9.87
2023-01-19T16:34:51.411Z,8.63
2023-01-19T16:39:53.158Z,9.40
2023-01-19T16:44:54.787Z,9.70
2023-01-19T16:49:56.473Z,8.77
2023-01-19T16:54:58.108Z,10.40
2023-01-19T16:59:59.722Z,9.23
2023-01-19T17:05:01.464Z,9.67
2023-01-19T17:10:03.351Z,10.60
2023-01-19T17:15:05.502Z,11.00
2023-01-19T17:20:07.827Z,9.80
2023-01-19T17:25:09.451Z,9.87
2023-01-19T17:30:11.860Z,11.10
2023-01-19T17:35:13.616Z,9.90
2023-01-19T17:40:15.656Z,10.13
2023-01-19T17:45:17.268Z,10.87
2023-01-19T17:50:18.959Z,10.23
2023-01-19T17:55:20.642Z,10.87
2023-01-19T18:00:22.637Z,10.83
2023-01-19T18:05:24.587Z,11.20
2023-01-19T18:10:26.238Z,10.80
2023-01-19T18:15:27.890Z,11.43
2023-01-19T18:20:31.548Z,12.37
2023-01-19T18:25:33.308Z,10.63
2023-01-19T18:30:36.073Z,10.90
2023-01-19T18:35:38.875Z,10.93
2023-01-19T18:40:40.584Z,11.80
2023-01-19T18:45:42.286Z,11.30
2023-01-19T18:50:44.026Z,11.93
2023-01-19T18:55:57.381Z,10.90
2023-01-19T19:01:00.491Z,12.00
2023-01-19T19:06:03.387Z,12.67
2023-01-19T19:11:08.644Z,12.17
2023-01-19T19:16:12.664Z,12.53
2023-01-19T19:21:14.481Z,12.43
2023-01-19T19:26:16.113Z,12.47
2023-01-19T19:31:20.708Z,12.17
2023-01-19T19:36:23.304Z,14.50
2023-01-19T19:41:27.133Z,12.13
2023-01-19T19:46:28.983Z,12.40
2023-01-19T19:51:30.703Z,13.57
2023-01-19T19:56:34.303Z,14.50
2023-01-19T20:01:36.330Z,16.60
2023-01-19T20:06:44.676Z,15.97
2023-01-19T20:11:46.771Z,17.37
2023-01-19T20:16:48.427Z,18.10
2023-01-19T20:21:50.098Z,18.20
2023-01-19T20:26:52.845Z,17.87
2023-01-19T20:31:55.809Z,17.53
2023-01-19T20:36:57.473Z,17.43
2023-01-19T20:41:59.100Z,16.97
2023-01-19T20:47:00.812Z,19.17
2023-01-19T20:52:02.555Z,17.93
2023-01-19T20:57:04.188Z,18.43
2023-01-19T21:02:07.963Z,18.90
2023-01-19T21:07:09.797Z,18.80
2023-01-19T21:12:11.823Z,18.43
2023-01-19T21:17:13.455Z,18.07
2023-01-19T21:22:15.131Z,22.47
2023-01-19T21:27:16.734Z,18.00
2023-01-19T21:32:18.457Z,16.33
2023-01-19T21:37:20.204Z,16.40
2023-01-19T21:42:21.821Z,17.20
2023-01-19T21:47:23.452Z,16.13
2023-01-19T21:52:25.067Z,22.92
2023-01-19T21:57:26.690Z,18.17
2023-01-19T22:02:38.297Z,17.37
2023-01-19T22:07:40.623Z,16.87
2023-01-19T22:13:03.306Z,18.20
2023-01-19T22:18:05.351Z,17.00
2023-01-19T22:23:07.259Z,17.13
2023-01-19T22:28:09.085Z,17.03
2023-01-19T22:33:10.959Z,17.10
2023-01-19T22:38:12.826Z,15.97
2023-01-19T22:43:14.631Z,17.23
2023-01-19T22:48:16.488Z,18.10
2023-01-19T22:53:18.275Z,20.13
2023-01-19T22:58:21.609Z,18.33
2023-01-19T23:03:23.452Z,17.70
2023-01-19T23:08:25.247Z,18.60
2023-01-19T23:13:27.120Z,19.17
2023-01-19T23:18:29.841Z,20.30
2023-01-19T23:23:33.945Z,19.50
2023-01-19T23:28:36.929Z,19.30
2023-01-19T23:33:38.756Z,19.27
2023-01-19T23:38:41.281Z,20.43
2023-01-19T23:43:43.106Z,20.37
2023-01-19T23:48:45.285Z,19.30
2023-01-19T23:53:47.380Z,19.83
2023-01-19T23:58:54.085Z,19.63
